Navarro Mills, Texas
Current Conditions -  °F | °C
As of 2:53 AM on Thursday 27 Nov 2014 (Local Time) from KCRS Reporting Station
Clear Clear  
Wind Chill: 41°   Ceiling: Unl
Heat Index: 45°   Visibility: 10mi
Dew Point: 30°   Wind: 8mph
Humidity: 56%   Direction: 360°N
Pressure: 30.44"   Gusts: NA
Location:  31.9458°N, 96.5713°W
Report Text: KCRS 270853Z AUTO 36007KT 10SM CLR 07/M01 A3044 RMK AO2 SLP308 T00721011 53016
Loading
Personal Weather Stations






























Interactive Weather Map New forecast layout! Learn more

10-Day Weather Forecast

Advertisements
Track Severe Weather on mobile